Time;durP1;ratioP1;P1;durP2;ratioP2;P2;SDS_P1;SDS_P2;PMS_P1;PMS_P2;Temp;Humidity;BMP_temperature;BMP_pressure;BME280_temperature;BME280_humidity;BME280_pressure;Samples;Min_cycle;Max_cycle;Signal;HPM_P1;HPM_P2
2023/05/14 03:01:31;;;;;;;8.20;7.60;;;11.10;99.90;;;;;;5476428;23;20287;-81
2023/05/14 03:03:57;;;;;;;9.87;9.07;;;11.10;99.90;;;;;;5012305;28;20243;-79
2023/05/14 03:06:23;;;;;;;12.73;11.63;;;11.10;99.90;;;;;;5006682;28;20207;-82
2023/05/14 03:08:48;;;;;;;21.37;20.13;;;11.20;99.90;;;;;;5004595;28;20275;-81
2023/05/14 03:11:14;;;;;;;22.47;21.17;;;11.20;99.90;;;;;;5004027;28;20219;-81
2023/05/14 03:13:40;;;;;;;27.10;25.60;;;11.20;99.90;;;;;;5001110;28;20220;-83
2023/05/14 03:16:06;;;;;;;32.77;31.03;;;11.20;99.90;;;;;;4991232;28;20184;-83
2023/05/14 03:18:33;;;;;;;37.77;35.80;;;11.20;99.90;;;;;;4975375;28;20210;-83
2023/05/14 03:20:59;;;;;;;38.90;36.43;;;11.30;99.90;;;;;;4976499;28;20211;-83
2023/05/14 03:23:25;;;;;;;36.00;34.03;;;11.30;99.90;;;;;;4976573;28;20752;-83
2023/05/14 03:25:51;;;;;;;30.77;28.67;;;11.30;99.90;;;;;;4976262;28;20185;-83
2023/05/14 03:28:17;;;;;;;24.87;23.27;;;11.30;99.90;;;;;;4976929;28;20279;-83
2023/05/14 03:30:43;;;;;;;19.10;18.00;;;11.20;99.90;;;;;;4977379;28;20280;-82
2023/05/14 03:33:09;;;;;;;19.37;18.20;;;11.20;99.90;;;;;;4976090;28;20181;-83
2023/05/14 03:35:34;;;;;;;18.20;16.80;;;11.30;99.90;;;;;;4985783;28;20227;-83
2023/05/14 03:38:00;;;;;;;13.23;12.47;;;11.30;99.90;;;;;;4994667;28;20185;-82
2023/05/14 03:40:26;;;;;;;10.37;9.67;;;11.30;99.90;;;;;;4996083;28;20234;-83
2023/05/14 03:42:52;;;;;;;9.83;8.93;;;11.30;99.90;;;;;;4995581;28;20717;-83
2023/05/14 03:45:18;;;;;;;8.87;8.17;;;11.30;99.90;;;;;;4994552;28;20188;-83
2023/05/14 03:47:43;;;;;;;9.37;8.40;;;11.30;99.90;;;;;;4993834;28;20192;-82
2023/05/14 03:50:09;;;;;;;9.60;8.80;;;11.30;99.90;;;;;;4995128;28;20200;-83
2023/05/14 03:52:35;;;;;;;8.77;8.17;;;11.30;99.90;;;;;;5002287;28;20200;-82
2023/05/14 03:55:01;;;;;;;8.63;8.03;;;11.40;99.90;;;;;;4991707;28;20201;-82
2023/05/14 03:57:27;;;;;;;8.83;8.13;;;11.40;99.90;;;;;;4978657;28;20212;-82
2023/05/14 03:59:53;;;;;;;8.20;7.60;;;11.40;99.90;;;;;;4984522;28;20184;-82
2023/05/14 04:02:18;;;;;;;8.60;7.80;;;11.40;99.90;;;;;;4980959;28;20216;-82
2023/05/14 04:04:44;;;;;;;8.63;7.93;;;11.40;99.90;;;;;;4981997;28;20247;-81
2023/05/14 04:07:10;;;;;;;9.20;8.30;;;11.30;99.90;;;;;;4984923;28;20272;-80
2023/05/14 04:09:35;;;;;;;8.60;7.90;;;11.30;99.90;;;;;;4996847;28;20218;-81
2023/05/14 04:12:01;;;;;;;9.40;8.60;;;11.30;99.90;;;;;;5006393;28;20231;-80
2023/05/14 04:14:27;;;;;;;8.50;7.90;;;11.40;99.90;;;;;;4996448;28;20227;-77
2023/05/14 04:16:53;;;;;;;9.37;8.47;;;11.40;99.90;;;;;;4993600;28;20219;-77
2023/05/14 04:19:19;;;;;;;8.70;8.00;;;11.40;99.90;;;;;;4995434;28;20192;-76
2023/05/14 04:21:44;;;;;;;9.40;8.57;;;11.40;99.90;;;;;;4993888;28;20208;-75
2023/05/14 04:24:10;;;;;;;8.93;8.13;;;11.50;99.90;;;;;;4995525;28;20184;-78
2023/05/14 04:26:36;;;;;;;8.70;7.87;;;11.50;99.90;;;;;;4995113;28;20195;-78
2023/05/14 04:29:02;;;;;;;9.27;8.50;;;11.60;99.90;;;;;;4994640;28;20176;-77
2023/05/14 04:31:31;;;;;;;8.43;7.80;;;11.60;99.90;;;;;;4994189;28;20641;-77
2023/05/14 04:33:56;;;;;;;9.63;7.90;;;11.60;99.90;;;;;;4994414;28;20183;-77
2023/05/14 04:36:22;;;;;;;7.97;7.37;;;11.70;99.90;;;;;;4994148;28;20196;-77
2023/05/14 04:38:48;;;;;;;8.23;7.53;;;11.70;99.90;;;;;;4998558;28;20214;-75
2023/05/14 04:41:14;;;;;;;9.27;8.13;;;11.70;99.90;;;;;;5001309;28;20305;-76
2023/05/14 04:43:39;;;;;;;8.30;7.60;;;11.70;99.90;;;;;;5000497;28;20656;-75
2023/05/14 04:46:05;;;;;;;9.10;8.50;;;11.70;99.90;;;;;;4988347;28;20205;-75
2023/05/14 04:48:31;;;;;;;8.77;8.07;;;11.70;99.90;;;;;;4979740;28;20216;-76
2023/05/14 04:50:57;;;;;;;9.17;8.47;;;11.70;99.90;;;;;;4979524;28;20466;-77
2023/05/14 04:53:23;;;;;;;10.67;9.77;;;11.70;99.90;;;;;;4976635;28;20191;-77
2023/05/14 04:55:49;;;;;;;9.63;8.83;;;11.70;99.90;;;;;;4986217;28;20188;-78
2023/05/14 04:58:14;;;;;;;10.17;9.40;;;11.70;99.90;;;;;;4997205;28;20191;-78
2023/05/14 05:00:40;;;;;;;9.00;8.30;;;11.70;99.90;;;;;;4997712;28;20212;-79
2023/05/14 05:03:06;;;;;;;9.17;8.47;;;11.80;99.90;;;;;;4995742;28;20543;-76
2023/05/14 05:05:32;;;;;;;10.13;9.33;;;11.80;99.90;;;;;;4987422;28;20181;-76
2023/05/14 05:07:58;;;;;;;9.90;9.10;;;11.90;99.90;;;;;;4973284;28;20177;-77
2023/05/14 05:10:23;;;;;;;11.13;10.33;;;11.90;99.90;;;;;;4988394;28;20235;-77
2023/05/14 05:12:49;;;;;;;10.57;9.63;;;11.90;99.90;;;;;;4992925;28;20548;-75
2023/05/14 05:15:15;;;;;;;10.87;9.90;;;12.00;99.90;;;;;;4988971;28;20189;-78
2023/05/14 05:17:41;;;;;;;10.13;9.33;;;12.00;99.90;;;;;;4972787;28;20188;-77
2023/05/14 05:20:08;;;;;;;10.67;9.90;;;12.10;99.90;;;;;;4976181;28;20197;-77
2023/05/14 05:22:35;;;;;;;14.07;13.07;;;12.10;99.90;;;;;;4973707;28;20229;-77
2023/05/14 05:25:05;;;;;;;16.30;15.20;;;12.10;99.90;;;;;;4976761;28;20199;-77
2023/05/14 05:27:32;;;;;;;17.67;16.50;;;12.10;99.90;;;;;;5001332;28;20231;-78
2023/05/14 05:30:00;;;;;;;19.00;17.50;;;12.10;99.90;;;;;;4993095;28;20219;-78
2023/05/14 05:32:25;;;;;;;22.60;19.67;;;12.10;99.90;;;;;;4994881;28;20207;-77
2023/05/14 05:34:51;;;;;;;17.83;16.13;;;12.10;99.90;;;;;;4993514;28;20650;-76
2023/05/14 05:37:17;;;;;;;13.70;12.40;;;12.10;99.90;;;;;;4992022;28;20190;-70
2023/05/14 05:39:43;;;;;;;12.90;11.80;;;12.20;99.90;;;;;;4993235;28;20770;-69
2023/05/14 05:42:09;;;;;;;12.03;11.10;;;12.20;99.90;;;;;;4993078;28;20218;-70
2023/05/14 05:44:35;;;;;;;12.13;11.30;;;12.20;99.90;;;;;;4992822;28;20187;-71
2023/05/14 05:47:00;;;;;;;11.97;10.97;;;12.20;99.90;;;;;;4974993;28;20177;-70
2023/05/14 05:49:26;;;;;;;13.87;12.77;;;12.30;99.90;;;;;;4973491;28;20240;-70
2023/05/14 05:51:52;;;;;;;13.50;12.10;;;12.30;99.90;;;;;;4972109;28;20570;-70
2023/05/14 05:54:18;;;;;;;13.50;12.40;;;12.30;99.90;;;;;;4973753;28;20236;-70
2023/05/14 05:56:43;;;;;;;14.13;13.03;;;12.40;99.90;;;;;;4989132;28;20180;-69
2023/05/14 05:59:09;;;;;;;13.37;12.27;;;12.50;99.90;;;;;;4992295;28;20553;-70
2023/05/14 06:01:35;;;;;;;11.30;10.03;;;12.50;99.90;;;;;;4991449;28;20220;-71
2023/05/14 06:04:02;;;;;;;12.30;11.20;;;12.60;99.90;;;;;;4992733;28;20192;-70
2023/05/14 06:06:28;;;;;;;9.33;8.50;;;12.70;99.90;;;;;;4991004;28;20640;-70
2023/05/14 06:08:54;;;;;;;10.40;8.87;;;12.80;99.90;;;;;;4990609;28;20557;-70
2023/05/14 06:11:20;;;;;;;10.80;9.80;;;12.90;99.90;;;;;;4992247;28;20219;-69
2023/05/14 06:13:46;;;;;;;10.50;9.30;;;13.10;99.90;;;;;;4991218;28;20190;-69
2023/05/14 06:16:12;;;;;;;13.57;12.27;;;13.20;99.90;;;;;;4985168;28;20169;-69
2023/05/14 06:18:37;;;;;;;13.60;12.70;;;13.30;99.90;;;;;;4990751;28;20675;-69
2023/05/14 06:21:03;;;;;;;15.03;13.83;;;13.50;99.90;;;;;;4991814;28;20586;-69
2023/05/14 06:23:29;;;;;;;16.33;15.20;;;13.70;99.90;;;;;;4992668;28;20180;-69
2023/05/14 06:25:54;;;;;;;25.23;23.60;;;13.90;99.90;;;;;;4983254;28;20181;-68
2023/05/14 06:28:20;;;;;;;23.60;22.23;;;14.00;99.90;;;;;;4972042;28;20279;-69
2023/05/14 06:30:49;;;;;;;18.03;16.83;;;14.20;99.90;;;;;;4972604;28;20216;-69
2023/05/14 06:33:14;;;;;;;11.97;10.83;;;14.30;99.90;;;;;;4971355;28;20235;-69
2023/05/14 06:35:40;;;;;;;11.07;10.17;;;14.40;99.90;;;;;;4977441;28;20180;-69
2023/05/14 06:38:06;;;;;;;9.40;8.70;;;14.50;99.90;;;;;;4991568;28;20833;-69
2023/05/14 06:40:31;;;;;;;9.37;8.47;;;14.50;99.90;;;;;;4990571;28;20546;-69
2023/05/14 06:42:57;;;;;;;9.60;8.80;;;14.60;99.90;;;;;;4991563;28;20185;-69
2023/05/14 06:45:23;;;;;;;10.77;9.77;;;14.70;99.90;;;;;;4988706;28;20692;-68
2023/05/14 06:47:49;;;;;;;11.10;10.20;;;14.70;99.90;;;;;;4972078;28;20556;-75
2023/05/14 06:50:14;;;;;;;10.93;9.93;;;14.60;99.90;;;;;;4971015;28;20219;-75
2023/05/14 06:52:42;;;;;;;9.97;9.07;;;14.60;99.90;;;;;;4972623;28;20181;-75
2023/05/14 06:55:08;;;;;;;10.60;9.50;;;14.60;99.90;;;;;;4972152;28;20180;-76
2023/05/14 06:57:34;;;;;;;10.27;9.47;;;14.50;99.90;;;;;;4990177;28;20684;-74
2023/05/14 06:59:59;;;;;;;9.93;9.03;;;14.50;99.90;;;;;;4992143;28;20176;-76
2023/05/14 07:02:25;;;;;;;11.47;10.37;;;14.50;99.90;;;;;;4992092;28;20303;-75
2023/05/14 07:04:51;;;;;;;10.27;9.47;;;14.60;99.90;;;;;;4992737;28;20322;-77
2023/05/14 07:07:19;;;;;;;11.97;10.97;;;14.70;99.90;;;;;;4973540;28;20207;-77
2023/05/14 07:09:45;;;;;;;14.97;13.77;;;14.80;99.90;;;;;;4978818;28;20227;-76
2023/05/14 07:12:11;;;;;;;14.27;12.80;;;15.00;99.90;;;;;;4990573;28;20254;-76
2023/05/14 07:14:37;;;;;;;13.10;12.20;;;15.30;99.90;;;;;;4990994;28;20176;-76
2023/05/14 07:17:02;;;;;;;15.97;14.77;;;15.50;99.90;;;;;;4989712;28;20603;-76
2023/05/14 07:19:29;;;;;;;18.13;16.73;;;15.50;99.90;;;;;;4991761;28;20606;-76
2023/05/14 07:21:56;;;;;;;19.47;18.17;;;15.50;99.90;;;;;;4992893;28;20254;-76
2023/05/14 07:24:22;;;;;;;19.63;18.13;;;15.50;99.90;;;;;;4990637;28;20190;-76
2023/05/14 07:26:48;;;;;;;22.37;20.97;;;15.50;99.90;;;;;;4977938;28;20716;-75
2023/05/14 07:29:13;;;;;;;19.87;18.50;;;15.50;99.90;;;;;;4970430;28;20196;-76
2023/05/14 07:31:39;;;;;;;20.47;19.07;;;15.50;99.90;;;;;;4972264;28;20204;-76
2023/05/14 07:34:06;;;;;;;20.30;19.00;;;15.60;99.90;;;;;;4975705;28;20206;-76
2023/05/14 07:36:32;;;;;;;19.80;18.40;;;15.70;99.90;;;;;;4985613;28;20234;-76
2023/05/14 07:38:58;;;;;;;18.63;17.27;;;15.70;99.90;;;;;;4993959;28;20188;-76
2023/05/14 07:41:23;;;;;;;16.30;15.10;;;15.80;99.90;;;;;;4994230;28;20693;-76
2023/05/14 07:43:49;;;;;;;12.40;11.40;;;16.10;99.90;;;;;;4997560;28;20180;-75
2023/05/14 07:46:15;;;;;;;19.40;18.10;;;16.50;99.90;;;;;;4988212;28;20751;-76
2023/05/14 07:48:41;;;;;;;26.70;24.93;;;16.90;99.90;;;;;;4985521;28;20255;-76
2023/05/14 07:51:06;;;;;;;48.87;46.10;;;17.80;99.90;;;;;;4993003;28;20594;-75
2023/05/14 07:53:32;;;;;;;28.60;26.93;;;18.50;99.90;;;;;;4994032;28;20184;-76
2023/05/14 07:55:58;;;;;;;11.47;9.13;;;19.10;99.90;;;;;;4994744;28;20183;-76
2023/05/14 07:58:26;;;;;;;9.13;8.43;;;19.10;99.90;;;;;;4993588;28;20627;-76
2023/05/14 08:00:52;;;;;;;9.35;8.63;;;19.60;99.90;;;;;;4995172;28;20692;-76
2023/05/14 08:03:18;;;;;;;15.20;14.20;;;20.20;99.90;;;;;;4996396;28;20263;-76
2023/05/14 08:05:44;;;;;;;14.90;13.88;;;20.30;99.90;;;;;;4990932;28;20610;-76
2023/05/14 08:08:11;;;;;;;25.20;23.58;;;20.40;99.90;;;;;;4974192;28;20553;-76
2023/05/14 08:10:37;;;;;;;19.17;17.83;;;20.80;99.90;;;;;;4974154;28;20220;-76
2023/05/14 08:13:03;;;;;;;16.30;15.15;;;21.20;99.90;;;;;;4985455;28;20820;-76
2023/05/14 08:15:29;;;;;;;10.90;10.00;;;21.00;99.90;;;;;;4994474;28;20239;-76
2023/05/14 08:17:54;;;;;;;10.40;9.60;;;20.60;99.90;;;;;;4994051;28;20665;-77
2023/05/14 08:20:20;;;;;;;9.20;8.50;;;20.60;99.90;;;;;;4994484;28;20218;-76
2023/05/14 08:22:46;;;;;;;10.18;9.20;;;20.90;99.90;;;;;;4994036;28;20180;-76
2023/05/14 08:25:12;;;;;;;8.23;7.63;;;20.90;99.90;;;;;;4982992;28;20316;-76
2023/05/14 08:27:38;;;;;;;9.48;8.63;;;20.90;99.90;;;;;;4974384;28;20185;-77
2023/05/14 08:30:05;;;;;;;10.50;9.70;;;21.00;99.90;;;;;;4975104;28;20720;-77
2023/05/14 08:32:30;;;;;;;13.25;12.45;;;21.40;99.90;;;;;;4975825;28;20197;-77
2023/05/14 08:34:56;;;;;;;12.50;11.48;;;21.30;99.90;;;;;;4994696;28;20687;-77
2023/05/14 08:37:22;;;;;;;13.40;12.40;;;21.50;99.90;;;;;;4994822;28;20173;-76
2023/05/14 08:39:48;;;;;;;11.43;10.63;;;21.00;99.90;;;;;;4994508;28;20246;-77
2023/05/14 08:42:17;;;;;;;13.40;12.25;;;20.60;99.90;;;;;;4995104;28;20208;-77
2023/05/14 08:44:50;;;;;;;12.73;11.82;;;20.50;99.90;;;;;;4978547;28;20727;-76
2023/05/14 08:47:20;;;;;;;13.00;12.00;;;20.60;99.90;;;;;;4980090;28;20191;-78
2023/05/14 08:49:48;;;;;;;13.82;12.93;;;20.90;99.90;;;;;;4975699;28;20220;-78
2023/05/14 08:52:15;;;;;;;13.60;12.70;;;20.90;99.90;;;;;;4974844;28;20197;-77
2023/05/14 08:54:40;;;;;;;14.63;13.55;;;20.50;99.90;;;;;;4993697;28;20537;-77
2023/05/14 08:57:09;;;;;;;11.90;10.90;;;20.30;99.90;;;;;;5001668;28;20226;-76
2023/05/14 08:59:36;;;;;;;14.10;13.20;;;20.20;99.90;;;;;;4997977;28;20191;-77
2023/05/14 09:02:04;;;;;;;13.13;12.23;;;20.20;99.90;;;;;;4996563;28;20212;-77
2023/05/14 09:04:32;;;;;;;13.70;12.68;;;20.30;99.90;;;;;;4979910;28;20208;-77
2023/05/14 09:07:00;;;;;;;12.70;11.68;;;20.70;99.90;;;;;;4977766;28;20612;-78
2023/05/14 09:09:27;;;;;;;15.65;14.50;;;20.70;99.90;;;;;;4975360;28;20225;-78
2023/05/14 09:11:53;;;;;;;12.70;11.90;;;20.70;99.90;;;;;;4974090;28;20201;-77
2023/05/14 09:14:19;;;;;;;13.55;12.48;;;20.60;99.90;;;;;;5000302;23;20233;-76
2023/05/14 09:16:47;;;;;;;14.20;13.20;;;20.70;99.90;;;;;;4975525;28;20557;-76
2023/05/14 09:19:14;;;;;;;13.18;12.32;;;20.60;99.90;;;;;;4973820;28;20244;-75
2023/05/14 09:21:41;;;;;;;10.83;9.90;;;20.20;99.90;;;;;;4974439;28;20181;-75
2023/05/14 09:24:07;;;;;;;10.70;9.68;;;20.20;99.90;;;;;;4975990;28;20201;-75
2023/05/14 09:26:34;;;;;;;11.90;11.10;;;20.40;99.90;;;;;;4974446;28;20177;-75
2023/05/14 09:29:00;;;;;;;13.20;12.02;;;20.80;99.90;;;;;;4974149;28;20188;-75
2023/05/14 09:31:29;;;;;;;13.45;12.63;;;21.20;99.90;;;;;;4973223;28;20248;-75
2023/05/14 09:33:55;;;;;;;12.95;12.00;;;20.80;99.90;;;;;;4961748;28;20300;-75
2023/05/14 09:36:20;;;;;;;14.00;13.00;;;21.10;99.90;;;;;;4954460;29;20305;-75
2023/05/14 09:38:46;;;;;;;12.32;11.52;;;21.80;99.90;;;;;;4953438;29;20182;-75
2023/05/14 09:41:12;;;;;;;9.25;8.57;;;22.30;99.90;;;;;;4953612;29;20193;-75
2023/05/14 09:43:38;;;;;;;8.25;7.65;;;23.00;99.90;;;;;;4963266;28;20209;-75
2023/05/14 09:46:04;;;;;;;8.73;8.10;;;22.90;99.90;;;;;;4973920;28;20189;-75
2023/05/14 09:48:29;;;;;;;10.45;9.77;;;22.80;99.90;;;;;;4973328;28;20275;-75
2023/05/14 09:50:55;;;;;;;10.00;9.38;;;22.80;99.90;;;;;;4973716;28;20677;-75
2023/05/14 09:53:21;;;;;;;11.55;10.80;;;23.00;99.90;;;;;;4966972;28;20206;-75
2023/05/14 09:55:48;;;;;;;8.60;8.07;;;23.40;99.90;;;;;;4952902;29;20185;-75
2023/05/14 09:58:14;;;;;;;8.25;7.75;;;23.00;99.90;;;;;;4953011;29;20173;-75
2023/05/14 10:00:45;;;;;;;11.15;10.32;;;22.70;99.90;;;;;;4954751;28;20189;-75
2023/05/14 10:03:13;;;;;;;15.63;14.50;;;22.60;99.90;;;;;;4958634;28;20232;-76
2023/05/14 10:05:40;;;;;;;13.10;12.40;;;22.40;99.90;;;;;;4972428;28;20187;-75
2023/05/14 10:08:23;;;;;;;17.58;16.48;;;22.30;99.90;;;;;;4972918;28;20672;-75
2023/05/14 10:10:50;;;;;;;8.75;8.00;;;22.00;99.90;;;;;;4973283;28;20219;-75
2023/05/14 10:13:21;;;;;;;12.07;11.18;;;21.90;99.90;;;;;;4968059;28;20574;-75
2023/05/14 10:15:58;;;;;;;8.07;7.35;;;21.90;99.90;;;;;;4952647;28;20185;-75
2023/05/14 10:18:27;;;;;;;8.45;8.00;;;21.60;99.90;;;;;;4953271;29;20184;-75
2023/05/14 10:21:06;;;;;;;7.63;7.03;;;21.60;99.90;;;;;;4953552;28;20240;-75
2023/05/14 10:23:36;;;;;;;11.13;10.43;;;21.30;99.90;;;;;;4959913;28;20292;-75
2023/05/14 10:26:03;;;;;;;11.25;9.40;;;21.80;99.90;;;;;;4972736;28;20185;-75
2023/05/14 10:28:30;;;;;;;8.00;7.38;;;22.10;99.90;;;;;;4972625;28;20188;-75
2023/05/14 10:30:56;;;;;;;9.02;8.40;;;21.70;99.90;;;;;;4972971;28;20216;-76
2023/05/14 10:33:22;;;;;;;13.30;12.43;;;21.20;99.90;;;;;;4966116;28;20197;-76
2023/05/14 10:36:04;;;;;;;17.73;16.73;;;20.90;99.90;;;;;;4953578;29;20185;-76
2023/05/14 10:38:37;;;;;;;16.52;15.43;;;20.80;99.90;;;;;;4953029;28;20200;-76
2023/05/14 10:41:09;;;;;;;11.05;10.50;;;21.00;99.90;;;;;;4953494;28;20669;-76
2023/05/14 10:43:40;;;;;;;10.82;10.13;;;21.30;99.90;;;;;;4958782;28;20204;-76
2023/05/14 10:46:07;;;;;;;7.63;7.03;;;21.50;99.90;;;;;;4972992;28;20561;-76
2023/05/14 10:48:33;;;;;;;10.80;8.88;;;21.80;99.90;;;;;;4972552;28;20313;-75
2023/05/14 10:51:01;;;;;;;9.05;8.55;;;21.70;99.90;;;;;;4973654;28;20308;-75
2023/05/14 10:53:32;;;;;;;12.35;11.70;;;21.80;99.90;;;;;;4976443;28;20189;-75
2023/05/14 10:56:05;;;;;;;14.00;13.20;;;22.10;99.90;;;;;;4973061;28;20601;-75
2023/05/14 10:58:34;;;;;;;11.15;10.45;;;22.30;99.90;;;;;;4972215;28;20184;-75
2023/05/14 11:01:01;;;;;;;10.80;10.20;;;22.50;99.90;;;;;;4971495;28;20177;-75
2023/05/14 11:03:33;;;;;;;14.50;13.70;;;22.90;99.90;;;;;;4966522;28;20201;-76
2023/05/14 11:06:02;;;;;;;8.95;8.45;;;23.10;99.90;;;;;;4952278;28;20189;-75
2023/05/14 11:08:29;;;;;;;10.18;9.38;;;23.10;99.90;;;;;;4954404;28;20204;-75
2023/05/14 11:10:56;;;;;;;15.25;14.25;;;22.70;99.90;;;;;;4953168;29;20245;-75
2023/05/14 11:13:22;;;;;;;12.02;11.38;;;22.20;99.90;;;;;;4956781;28;20212;-75
2023/05/14 11:15:48;;;;;;;10.05;9.50;;;22.00;99.90;;;;;;4972589;28;20231;-75
2023/05/14 11:18:26;;;;;;;12.93;12.23;;;21.70;99.90;;;;;;4972171;28;20187;-75
2023/05/14 11:20:52;;;;;;;9.07;8.48;;;21.60;99.90;;;;;;4971406;28;20216;-75
2023/05/14 11:23:18;;;;;;;8.70;8.20;;;21.70;99.90;;;;;;4966450;28;20221;-74
2023/05/14 11:25:43;;;;;;;10.32;9.70;;;22.00;99.90;;;;;;4950105;28;20190;-74
2023/05/14 11:28:09;;;;;;;10.48;9.88;;;22.20;99.90;;;;;;4951607;29;20620;-73
2023/05/14 11:30:35;;;;;;;11.57;10.98;;;22.10;99.90;;;;;;4951990;29;20210;-74
2023/05/14 11:33:01;;;;;;;10.68;10.07;;;21.70;99.90;;;;;;4953651;28;20193;-73
2023/05/14 11:35:26;;;;;;;10.05;9.45;;;21.80;99.90;;;;;;4972020;28;20312;-73
2023/05/14 11:37:52;;;;;;;12.48;11.65;;;22.10;99.90;;;;;;4970588;28;20174;-76
2023/05/14 11:40:18;;;;;;;11.77;11.07;;;22.00;99.90;;;;;;4958926;28;20733;-75
2023/05/14 11:42:44;;;;;;;12.07;11.40;;;22.10;99.90;;;;;;4961897;28;20186;-74
2023/05/14 11:45:11;;;;;;;10.68;10.07;;;21.80;99.90;;;;;;4971861;28;20185;-74
2023/05/14 11:47:37;;;;;;;7.88;7.38;;;21.70;99.90;;;;;;4972624;28;20213;-75
2023/05/14 11:50:03;;;;;;;11.25;10.30;;;21.80;99.90;;;;;;4972018;28;20275;-75
2023/05/14 11:52:30;;;;;;;13.65;12.63;;;21.90;99.90;;;;;;4971992;28;20177;-75
2023/05/14 11:54:55;;;;;;;9.32;8.73;;;22.30;99.90;;;;;;4954650;28;20201;-75
2023/05/14 11:57:22;;;;;;;9.63;8.93;;;22.50;99.90;;;;;;4951165;29;20189;-74
2023/05/14 11:59:53;;;;;;;11.98;11.27;;;22.60;99.90;;;;;;4952788;28;20562;-75
2023/05/14 12:02:19;;;;;;;11.55;10.85;;;22.80;99.90;;;;;;4952650;28;20189;-74
2023/05/14 12:04:50;;;;;;;11.95;11.00;;;22.80;99.90;;;;;;4966144;28;20589;-74
2023/05/14 12:07:16;;;;;;;13.27;12.18;;;22.40;99.90;;;;;;4970426;28;20182;-74
2023/05/14 12:09:50;;;;;;;11.30;10.68;;;22.10;99.90;;;;;;4971832;28;20211;-74
2023/05/14 12:12:21;;;;;;;12.20;11.45;;;22.10;99.90;;;;;;4971665;28;20181;-74
2023/05/14 12:14:47;;;;;;;11.75;10.75;;;21.80;99.90;;;;;;4957756;28;20216;-74
2023/05/14 12:17:18;;;;;;;10.07;9.48;;;22.10;99.90;;;;;;4953725;28;20188;-74
2023/05/14 12:19:46;;;;;;;13.18;12.07;;;22.60;99.90;;;;;;4954904;28;20238;-74
2023/05/14 12:22:21;;;;;;;9.65;9.05;;;22.90;99.90;;;;;;4956019;28;20258;-74
2023/05/14 12:24:55;;;;;;;7.50;7.00;;;23.10;99.60;;;;;;4969025;28;20706;-74
2023/05/14 12:27:22;;;;;;;10.13;9.43;;;24.20;98.80;;;;;;4974814;28;20303;-75
2023/05/14 12:29:48;;;;;;;56.05;53.30;;;25.60;96.90;;;;;;4974783;28;20213;-75
2023/05/14 12:32:14;;;;;;;64.70;61.53;;;26.60;94.80;;;;;;4975019;28;20208;-74
2023/05/14 12:34:39;;;;;;;20.42;19.02;;;27.10;92.00;;;;;;4962443;28;20209;-75
2023/05/14 12:37:06;;;;;;;11.30;10.70;;;27.40;90.80;;;;;;4953838;29;20689;-75
2023/05/14 12:39:33;;;;;;;4.88;4.47;;;27.90;88.70;;;;;;4955329;28;20178;-74
2023/05/14 12:41:58;;;;;;;5.18;4.72;;;28.00;81.50;;;;;;4954480;29;20192;-74
2023/05/14 12:44:24;;;;;;;4.65;4.35;;;27.20;81.60;;;;;;4965361;28;20581;-74
2023/05/14 12:46:50;;;;;;;6.05;5.55;;;27.00;80.90;;;;;;4973553;28;20185;-75
2023/05/14 12:49:15;;;;;;;5.88;5.47;;;26.70;84.10;;;;;;4974653;28;20332;-74
2023/05/14 12:51:42;;;;;;;5.90;5.50;;;26.60;82.50;;;;;;4974419;28;20215;-75
2023/05/14 12:54:09;;;;;;;4.63;4.32;;;27.10;80.90;;;;;;4965729;28;20208;-75
2023/05/14 12:56:37;;;;;;;5.97;5.65;;;27.50;81.50;;;;;;4954470;28;20190;-75
2023/05/14 12:59:03;;;;;;;5.57;5.28;;;27.80;78.20;;;;;;4954322;29;20225;-74
2023/05/14 13:01:29;;;;;;;4.90;4.50;;;28.40;78.10;;;;;;4964202;28;20177;-74
2023/05/14 13:03:55;;;;;;;5.07;4.68;;;28.70;72.50;;;;;;4973289;28;20212;-74
2023/05/14 13:06:21;;;;;;;4.43;4.20;;;28.60;68.80;;;;;;4973391;28;20703;-75
2023/05/14 13:08:46;;;;;;;4.35;4.05;;;28.10;71.20;;;;;;4974446;28;20181;-75
2023/05/14 13:11:13;;;;;;;4.18;3.95;;;28.50;70.20;;;;;;4976607;28;20232;-74
2023/05/14 13:13:39;;;;;;;5.18;4.97;;;29.00;69.80;;;;;;4975806;28;20680;-75
2023/05/14 13:16:06;;;;;;;9.32;8.82;;;29.60;66.80;;;;;;4978102;28;20577;-74
2023/05/14 13:18:32;;;;;;;10.40;9.55;;;30.00;62.50;;;;;;4976773;28;20283;-74
2023/05/14 13:20:58;;;;;;;10.35;9.88;;;29.60;59.10;;;;;;4975837;28;20661;-73
2023/05/14 13:23:23;;;;;;;11.35;10.75;;;28.60;60.60;;;;;;4971953;28;20235;-73
2023/05/14 13:25:49;;;;;;;9.93;9.43;;;28.20;60.30;;;;;;4952965;29;20237;-73
2023/05/14 13:28:15;;;;;;;13.63;12.75;;;28.20;62.10;;;;;;4955140;28;20182;-74
2023/05/14 13:30:41;;;;;;;10.23;9.73;;;28.60;59.10;;;;;;4954208;29;20241;-73
2023/05/14 13:33:06;;;;;;;10.75;10.25;;;28.80;59.30;;;;;;4956338;29;20285;-74
2023/05/14 13:35:33;;;;;;;10.95;10.40;;;29.30;58.80;;;;;;4956109;28;20181;-74
2023/05/14 13:37:59;;;;;;;10.68;10.18;;;29.10;59.40;;;;;;4954689;28;20184;-74
2023/05/14 13:40:24;;;;;;;8.77;8.38;;;29.30;58.90;;;;;;4955260;29;20189;-73
2023/05/14 13:42:50;;;;;;;9.20;8.63;;;29.40;58.90;;;;;;4953784;28;20265;-74
2023/05/14 13:45:16;;;;;;;12.48;11.90;;;29.00;56.80;;;;;;4969055;28;20193;-75
2023/05/14 13:47:42;;;;;;;14.38;13.73;;;28.30;57.50;;;;;;4973515;28;20664;-73
2023/05/14 13:50:08;;;;;;;9.55;9.05;;;28.80;58.30;;;;;;4973775;28;20315;-73
2023/05/14 13:52:33;;;;;;;9.18;8.75;;;29.50;56.90;;;;;;4974471;28;20212;-73
2023/05/14 13:54:59;;;;;;;8.75;8.32;;;29.70;57.50;;;;;;4959795;28;20202;-73
2023/05/14 13:57:25;;;;;;;11.85;11.25;;;30.60;56.00;;;;;;4954425;29;20178;-74
2023/05/14 13:59:51;;;;;;;29.50;28.02;;;31.00;55.40;;;;;;4953313;28;20216;-74
2023/05/14 14:02:17;;;;;;;25.42;24.15;;;30.90;53.90;;;;;;4954534;29;20321;-74
2023/05/14 14:04:43;;;;;;;23.10;21.95;;;30.30;54.00;;;;;;4964702;28;20201;-74
2023/05/14 14:07:08;;;;;;;9.20;8.68;;;29.00;56.30;;;;;;4973343;28;20776;-74
2023/05/14 14:09:35;;;;;;;12.27;11.40;;;28.10;58.80;;;;;;4974008;28;20279;-74
2023/05/14 14:12:05;;;;;;;13.77;12.98;;;29.10;57.90;;;;;;4973309;28;20180;-74
2023/05/14 14:14:30;;;;;;;13.77;12.95;;;29.10;57.00;;;;;;4964755;28;20244;-74
2023/05/14 14:16:56;;;;;;;12.32;11.52;;;29.20;57.40;;;;;;4952495;28;20641;-74
2023/05/14 14:19:22;;;;;;;12.85;11.95;;;29.10;58.00;;;;;;4952940;29;20218;-73
2023/05/14 14:21:48;;;;;;;14.07;13.10;;;29.10;58.60;;;;;;4954296;28;20185;-73
2023/05/14 14:24:14;;;;;;;13.63;12.93;;;29.10;59.00;;;;;;4959697;28;20248;-73
2023/05/14 14:26:39;;;;;;;17.65;16.65;;;29.10;60.20;;;;;;4973197;28;20823;-74
2023/05/14 14:29:05;;;;;;;9.80;9.30;;;28.70;60.00;;;;;;4972716;28;20185;-74
2023/05/14 14:31:31;;;;;;;12.82;12.25;;;29.20;58.70;;;;;;4972871;28;20216;-75
2023/05/14 14:33:57;;;;;;;11.48;10.88;;;29.10;56.80;;;;;;4969273;28;20228;-74
2023/05/14 14:36:22;;;;;;;11.88;11.18;;;29.90;57.40;;;;;;4952726;29;20178;-74
2023/05/14 14:38:48;;;;;;;11.63;11.13;;;29.80;56.90;;;;;;4952262;29;20273;-77
2023/05/14 14:41:14;;;;;;;10.00;9.40;;;29.80;55.80;;;;;;4953925;28;20178;-75
2023/05/14 14:43:40;;;;;;;15.77;14.93;;;30.10;56.70;;;;;;4954635;28;21067;-74
2023/05/14 14:46:07;;;;;;;16.63;15.73;;;30.30;57.10;;;;;;4973085;28;20185;-74
2023/05/14 14:48:37;;;;;;;14.52;13.60;;;29.30;57.40;;;;;;4972563;28;20188;-74
2023/05/14 14:51:05;;;;;;;5.30;5.00;;;27.40;61.30;;;;;;4973249;28;20287;-74
2023/05/14 14:53:31;;;;;;;10.20;9.50;;;25.20;64.30;;;;;;4957692;28;20243;-75
2023/05/14 14:55:59;;;;;;;23.80;22.55;;;23.10;70.70;;;;;;4957437;29;21038;-74
2023/05/14 14:58:25;;;;;;;43.40;41.22;;;22.60;73.50;;;;;;4953156;29;20177;-74
2023/05/14 15:00:53;;;;;;;43.22;41.08;;;23.30;71.80;;;;;;4953382;28;20752;-74
2023/05/14 15:03:20;;;;;;;27.77;26.35;;;24.30;70.20;;;;;;4967997;28;20197;-74
2023/05/14 15:05:46;;;;;;;7.53;7.13;;;25.40;67.40;;;;;;4972681;28;20191;-74
2023/05/14 15:08:12;;;;;;;5.53;5.13;;;25.70;65.50;;;;;;4972324;28;20268;-74
2023/05/14 15:10:38;;;;;;;7.15;6.70;;;25.50;65.60;;;;;;4971622;28;20212;-74
2023/05/14 15:15:36;;;;;;;5.03;4.63;;;24.90;66.40;;;;;;4940467;29;20641;-85
2023/05/14 15:18:03;;;;;;;5.05;4.70;;;24.90;65.70;;;;;;4941969;29;20178;-83
2023/05/14 15:20:29;;;;;;;5.18;4.90;;;25.50;66.20;;;;;;4957924;29;20190;-84
2023/05/14 15:22:55;;;;;;;4.63;4.28;;;26.80;61.60;;;;;;4953636;29;20188;-85
2023/05/14 15:25:22;;;;;;;4.90;4.50;;;27.10;60.70;;;;;;4960122;29;20589;-84
2023/05/14 15:27:49;;;;;;;4.95;4.65;;;27.00;61.20;;;;;;4959214;28;20188;-83
2023/05/14 15:30:15;;;;;;;5.82;5.53;;;26.60;60.70;;;;;;4960704;28;20686;-83
2023/05/14 15:32:41;;;;;;;5.90;5.50;;;24.70;63.20;;;;;;4947526;29;20247;-83
2023/05/14 15:35:07;;;;;;;36.17;34.35;;;23.50;66.80;;;;;;4938459;29;20206;-82